sensor_id;sensor_type;location;lat;lon;timestamp;pressure;altitude;pressure_sealevel;temperature;humidity
79481;BME280;68944;48.262;14.208;2023-04-20T00:01:01;98340.41;;;6.87;74.91
79481;BME280;68944;48.262;14.208;2023-04-20T00:03:26;98341.22;;;6.87;74.85
79481;BME280;68944;48.262;14.208;2023-04-20T00:05:52;98340.41;;;6.87;75.26
79481;BME280;68944;48.262;14.208;2023-04-20T00:08:18;98335.13;;;6.87;74.94
79481;BME280;68944;48.262;14.208;2023-04-20T00:10:44;98322.81;;;6.94;74.88
79481;BME280;68944;48.262;14.208;2023-04-20T00:13:10;98314.75;;;7.02;75.57
79481;BME280;68944;48.262;14.208;2023-04-20T00:15:36;98299.75;;;7.03;75.43
79481;BME280;68944;48.262;14.208;2023-04-20T00:18:01;98306.28;;;7.07;75.33
79481;BME280;68944;48.262;14.208;2023-04-20T00:20:27;98318.81;;;7.12;74.77
79481;BME280;68944;48.262;14.208;2023-04-20T00:22:53;98302.00;;;7.06;75.07
79481;BME280;68944;48.262;14.208;2023-04-20T00:25:19;98309.94;;;7.13;74.79
79481;BME280;68944;48.262;14.208;2023-04-20T00:27:45;98313.19;;;7.22;74.85
79481;BME280;68944;48.262;14.208;2023-04-20T00:30:11;98306.31;;;7.21;74.99
79481;BME280;68944;48.262;14.208;2023-04-20T00:32:37;98298.78;;;7.17;74.26
79481;BME280;68944;48.262;14.208;2023-04-20T00:35:03;98302.06;;;7.26;74.33
79481;BME280;68944;48.262;14.208;2023-04-20T00:37:29;98302.31;;;7.38;73.84
79481;BME280;68944;48.262;14.208;2023-04-20T00:39:56;98300.69;;;7.44;73.62
79481;BME280;68944;48.262;14.208;2023-04-20T00:42:23;98296.81;;;7.40;73.49
79481;BME280;68944;48.262;14.208;2023-04-20T00:44:50;98304.72;;;7.40;73.94
79481;BME280;68944;48.262;14.208;2023-04-20T00:47:15;98284.84;;;7.31;73.37
79481;BME280;68944;48.262;14.208;2023-04-20T00:49:41;98280.78;;;7.28;74.06
79481;BME280;68944;48.262;14.208;2023-04-20T00:52:07;98286.09;;;7.42;73.84
79481;BME280;68944;48.262;14.208;2023-04-20T00:54:34;98281.84;;;7.47;74.21
79481;BME280;68944;48.262;14.208;2023-04-20T00:57:00;98279.63;;;7.51;74.02
79481;BME280;68944;48.262;14.208;2023-04-20T00:59:27;98282.44;;;7.56;74.27
79481;BME280;68944;48.262;14.208;2023-04-20T01:01:52;98279.22;;;7.54;73.52
79481;BME280;68944;48.262;14.208;2023-04-20T01:04:18;98291.78;;;7.52;74.37
79481;BME280;68944;48.262;14.208;2023-04-20T01:06:44;98274.75;;;7.48;74.23
79481;BME280;68944;48.262;14.208;2023-04-20T01:09:10;98279.63;;;7.58;73.95
79481;BME280;68944;48.262;14.208;2023-04-20T01:11:37;98272.34;;;7.53;74.97
79481;BME280;68944;48.262;14.208;2023-04-20T01:14:02;98275.97;;;7.52;74.69
79481;BME280;68944;48.262;14.208;2023-04-20T01:16:30;98281.66;;;7.56;74.86
79481;BME280;68944;48.262;14.208;2023-04-20T01:18:56;98282.28;;;7.58;75.08
79481;BME280;68944;48.262;14.208;2023-04-20T01:21:23;98277.59;;;7.53;75.11
79481;BME280;68944;48.262;14.208;2023-04-20T01:23:50;98263.38;;;7.54;75.03
79481;BME280;68944;48.262;14.208;2023-04-20T01:26:17;98279.63;;;7.58;75.34
79481;BME280;68944;48.262;14.208;2023-04-20T01:28:44;98260.16;;;7.59;74.89
79481;BME280;68944;48.262;14.208;2023-04-20T01:31:10;98264.44;;;7.60;75.21
79481;BME280;68944;48.262;14.208;2023-04-20T01:33:36;98272.72;;;7.63;74.81
79481;BME280;68944;48.262;14.208;2023-04-20T01:36:03;98267.25;;;7.51;75.15
79481;BME280;68944;48.262;14.208;2023-04-20T01:38:29;98268.66;;;7.61;74.88
79481;BME280;68944;48.262;14.208;2023-04-20T01:41:05;98267.84;;;7.60;74.46
79481;BME280;68944;48.262;14.208;2023-04-20T01:43:32;98258.13;;;7.54;74.70
79481;BME280;68944;48.262;14.208;2023-04-20T01:45:59;98257.94;;;7.56;75.16
79481;BME280;68944;48.262;14.208;2023-04-20T01:48:25;98248.00;;;7.51;75.43
79481;BME280;68944;48.262;14.208;2023-04-20T01:50:52;98247.56;;;7.54;74.68
79481;BME280;68944;48.262;14.208;2023-04-20T01:53:18;98256.50;;;7.53;74.74
79481;BME280;68944;48.262;14.208;2023-04-20T01:55:46;98250.00;;;7.49;74.06
79481;BME280;68944;48.262;14.208;2023-04-20T01:58:12;98253.88;;;7.46;74.16
79481;BME280;68944;48.262;14.208;2023-04-20T02:00:38;98244.91;;;7.40;73.21
79481;BME280;68944;48.262;14.208;2023-04-20T02:03:04;98237.81;;;7.21;73.16
79481;BME280;68944;48.262;14.208;2023-04-20T02:05:30;98223.19;;;7.11;71.82
79481;BME280;68944;48.262;14.208;2023-04-20T02:07:57;98242.66;;;7.17;70.62
79481;BME280;68944;48.262;14.208;2023-04-20T02:10:22;98234.09;;;6.94;71.28
79481;BME280;68944;48.262;14.208;2023-04-20T02:12:48;98232.66;;;6.99;71.05
79481;BME280;68944;48.262;14.208;2023-04-20T02:15:14;98222.31;;;6.90;70.72
79481;BME280;68944;48.262;14.208;2023-04-20T02:17:41;98229.81;;;6.93;71.14
79481;BME280;68944;48.262;14.208;2023-04-20T02:20:08;98224.75;;;6.99;70.89
79481;BME280;68944;48.262;14.208;2023-04-20T02:22:35;98228.19;;;6.92;70.92
79481;BME280;68944;48.262;14.208;2023-04-20T02:25:01;98209.72;;;6.79;71.85
79481;BME280;68944;48.262;14.208;2023-04-20T02:27:27;98225.13;;;6.89;72.33
79481;BME280;68944;48.262;14.208;2023-04-20T02:29:53;98215.44;;;6.96;72.10
79481;BME280;68944;48.262;14.208;2023-04-20T02:32:18;98224.38;;;7.02;71.43
79481;BME280;68944;48.262;14.208;2023-04-20T02:34:44;98221.91;;;6.93;71.76
79481;BME280;68944;48.262;14.208;2023-04-20T02:37:09;98215.88;;;7.00;71.94
79481;BME280;68944;48.262;14.208;2023-04-20T02:39:35;98219.72;;;7.04;71.51
79481;BME280;68944;48.262;14.208;2023-04-20T02:42:00;98217.88;;;6.98;72.29
79481;BME280;68944;48.262;14.208;2023-04-20T02:44:27;98201.25;;;6.90;71.53
79481;BME280;68944;48.262;14.208;2023-04-20T02:46:52;98218.28;;;6.94;72.08
79481;BME280;68944;48.262;14.208;2023-04-20T02:49:19;98204.03;;;6.82;72.14
79481;BME280;68944;48.262;14.208;2023-04-20T02:51:45;98208.34;;;6.90;71.71
79481;BME280;68944;48.262;14.208;2023-04-20T02:54:10;98206.94;;;7.01;71.16
79481;BME280;68944;48.262;14.208;2023-04-20T02:56:36;98204.91;;;7.03;71.48
79481;BME280;68944;48.262;14.208;2023-04-20T02:59:05;98200.84;;;7.00;70.94
79481;BME280;68944;48.262;14.208;2023-04-20T03:01:42;98192.53;;;6.90;71.37
79481;BME280;68944;48.262;14.208;2023-04-20T03:04:19;98196.81;;;6.91;71.58
79481;BME280;68944;48.262;14.208;2023-04-20T03:06:57;98192.50;;;6.83;72.28
79481;BME280;68944;48.262;14.208;2023-04-20T03:09:28;98185.81;;;6.74;72.10
79481;BME280;68944;48.262;14.208;2023-04-20T03:12:26;98185.00;;;6.80;72.51
79481;BME280;68944;48.262;14.208;2023-04-20T03:15:10;98190.44;;;6.65;72.22
79481;BME280;68944;48.262;14.208;2023-04-20T03:18:02;98182.69;;;6.56;72.41
79481;BME280;68944;48.262;14.208;2023-04-20T03:20:29;98194.66;;;6.59;72.84
79481;BME280;68944;48.262;14.208;2023-04-20T03:22:54;98184.31;;;6.57;72.74
79481;BME280;68944;48.262;14.208;2023-04-20T03:25:22;98175.00;;;6.55;72.67
79481;BME280;68944;48.262;14.208;2023-04-20T03:28:11;98173.63;;;6.66;73.32
79481;BME280;68944;48.262;14.208;2023-04-20T03:30:39;98167.16;;;6.68;72.89
79481;BME280;68944;48.262;14.208;2023-04-20T03:33:11;98179.94;;;6.71;73.06
79481;BME280;68944;48.262;14.208;2023-04-20T03:35:36;98168.56;;;6.71;72.43
79481;BME280;68944;48.262;14.208;2023-04-20T03:38:04;98177.69;;;6.75;73.09
79481;BME280;68944;48.262;14.208;2023-04-20T03:40:30;98178.50;;;6.76;73.14
79481;BME280;68944;48.262;14.208;2023-04-20T03:42:56;98171.25;;;6.91;72.86
79481;BME280;68944;48.262;14.208;2023-04-20T03:45:21;98184.44;;;6.91;72.21
79481;BME280;68944;48.262;14.208;2023-04-20T03:47:48;98182.59;;;6.92;72.45
79481;BME280;68944;48.262;14.208;2023-04-20T03:50:13;98180.97;;;6.84;72.42
79481;BME280;68944;48.262;14.208;2023-04-20T03:52:39;98174.66;;;6.71;73.04
79481;BME280;68944;48.262;14.208;2023-04-20T03:55:05;98171.66;;;6.81;72.89
79481;BME280;68944;48.262;14.208;2023-04-20T03:57:32;98177.31;;;6.85;72.84
79481;BME280;68944;48.262;14.208;2023-04-20T03:59:59;98165.97;;;6.78;73.06
79481;BME280;68944;48.262;14.208;2023-04-20T04:02:29;98180.78;;;6.92;73.44
79481;BME280;68944;48.262;14.208;2023-04-20T04:04:55;98171.66;;;6.88;73.53
79481;BME280;68944;48.262;14.208;2023-04-20T04:07:21;98181.00;;;6.98;73.70
79481;BME280;68944;48.262;14.208;2023-04-20T04:09:48;98172.50;;;7.02;73.38
79481;BME280;68944;48.262;14.208;2023-04-20T04:12:14;98157.06;;;6.86;73.50
79481;BME280;68944;48.262;14.208;2023-04-20T04:14:40;98179.97;;;6.99;73.60
79481;BME280;68944;48.262;14.208;2023-04-20T04:17:06;98181.63;;;7.00;73.54
79481;BME280;68944;48.262;14.208;2023-04-20T04:19:34;98183.84;;;7.10;73.12
79481;BME280;68944;48.262;14.208;2023-04-20T04:22:01;98173.72;;;7.00;73.21
79481;BME280;68944;48.262;14.208;2023-04-20T04:24:31;98185.69;;;7.02;73.63
79481;BME280;68944;48.262;14.208;2023-04-20T04:27:08;98177.56;;;6.97;73.75
79481;BME280;68944;48.262;14.208;2023-04-20T04:29:39;98179.19;;;7.05;73.38
79481;BME280;68944;48.262;14.208;2023-04-20T04:32:08;98161.94;;;6.96;73.34
79481;BME280;68944;48.262;14.208;2023-04-20T04:34:38;98167.84;;;6.98;73.73
79481;BME280;68944;48.262;14.208;2023-04-20T04:37:03;98173.50;;;6.94;73.48
79481;BME280;68944;48.262;14.208;2023-04-20T04:39:38;98180.19;;;6.97;73.22
79481;BME280;68944;48.262;14.208;2023-04-20T04:42:11;98181.00;;;6.98;73.32
79481;BME280;68944;48.262;14.208;2023-04-20T04:44:40;98177.56;;;6.97;73.54
79481;BME280;68944;48.262;14.208;2023-04-20T04:47:07;98183.44;;;7.06;73.12
79481;BME280;68944;48.262;14.208;2023-04-20T04:49:34;98176.34;;;7.00;73.54
79481;BME280;68944;48.262;14.208;2023-04-20T04:52:02;98179.81;;;7.07;73.36
79481;BME280;68944;48.262;14.208;2023-04-20T04:54:28;98165.00;;;7.06;73.01
79481;BME280;68944;48.262;14.208;2023-04-20T04:56:53;98177.78;;;7.09;73.81
79481;BME280;68944;48.262;14.208;2023-04-20T04:59:18;98175.31;;;7.01;73.53
79481;BME280;68944;48.262;14.208;2023-04-20T05:01:44;98185.09;;;7.14;73.25
79481;BME280;68944;48.262;14.208;2023-04-20T05:04:10;98194.41;;;7.16;73.32
79481;BME280;68944;48.262;14.208;2023-04-20T05:06:35;98194.22;;;7.25;72.45
79481;BME280;68944;48.262;14.208;2023-04-20T05:09:00;98180.00;;;7.12;73.19
79481;BME280;68944;48.262;14.208;2023-04-20T05:11:26;98174.16;;;7.24;72.95
79481;BME280;68944;48.262;14.208;2023-04-20T05:13:51;98191.16;;;7.28;72.97
79481;BME280;68944;48.262;14.208;2023-04-20T05:16:17;98186.72;;;7.28;72.48
79481;BME280;68944;48.262;14.208;2023-04-20T05:18:43;98186.13;;;7.33;72.38
79481;BME280;68944;48.262;14.208;2023-04-20T05:21:08;98182.28;;;7.36;72.27
79481;BME280;68944;48.262;14.208;2023-04-20T05:23:33;98176.78;;;7.31;72.60
79481;BME280;68944;48.262;14.208;2023-04-20T05:25:59;98177.59;;;7.38;71.95
79481;BME280;68944;48.262;14.208;2023-04-20T05:28:24;98189.56;;;7.40;72.14
79481;BME280;68944;48.262;14.208;2023-04-20T05:30:51;98174.16;;;7.37;71.93
79481;BME280;68944;48.262;14.208;2023-04-20T05:33:19;98181.06;;;7.38;72.13
79481;BME280;68944;48.262;14.208;2023-04-20T05:35:45;98193.84;;;7.42;72.61
79481;BME280;68944;48.262;14.208;2023-04-20T05:38:10;98181.06;;;7.52;71.66
79481;BME280;68944;48.262;14.208;2023-04-20T05:40:36;98191.81;;;7.57;71.80
79481;BME280;68944;48.262;14.208;2023-04-20T05:43:01;98170.91;;;7.49;72.00
79481;BME280;68944;48.262;14.208;2023-04-20T05:45:27;98182.88;;;7.58;72.42
79481;BME280;68944;48.262;14.208;2023-04-20T05:47:56;98176.59;;;7.59;72.59
79481;BME280;68944;48.262;14.208;2023-04-20T05:50:25;98176.38;;;7.68;72.30
79481;BME280;68944;48.262;14.208;2023-04-20T05:52:52;98178.84;;;7.69;72.17
79481;BME280;68944;48.262;14.208;2023-04-20T05:55:18;98168.91;;;7.65;72.49
79481;BME280;68944;48.262;14.208;2023-04-20T05:57:44;98176.81;;;7.65;71.93
79481;BME280;68944;48.262;14.208;2023-04-20T06:00:14;98184.28;;;7.74;72.21
79481;BME280;68944;48.262;14.208;2023-04-20T06:02:40;98183.66;;;7.79;72.22
79481;BME280;68944;48.262;14.208;2023-04-20T06:05:07;98176.56;;;7.87;71.85
79481;BME280;68944;48.262;14.208;2023-04-20T06:07:33;98186.72;;;7.90;72.16
79481;BME280;68944;48.262;14.208;2023-04-20T06:09:59;98181.03;;;7.93;71.78
79481;BME280;68944;48.262;14.208;2023-04-20T06:12:26;98187.50;;;8.04;72.25
79481;BME280;68944;48.262;14.208;2023-04-20T06:14:54;98173.91;;;8.00;71.94
79481;BME280;68944;48.262;14.208;2023-04-20T06:17:20;98170.47;;;8.00;71.63
79481;BME280;68944;48.262;14.208;2023-04-20T06:19:45;98194.00;;;8.08;71.63
79481;BME280;68944;48.262;14.208;2023-04-20T06:22:12;98182.22;;;8.04;71.58
79481;BME280;68944;48.262;14.208;2023-04-20T06:24:38;98177.78;;;8.04;71.98
79481;BME280;68944;48.262;14.208;2023-04-20T06:27:07;98186.69;;;8.10;71.40
79481;BME280;68944;48.262;14.208;2023-04-20T06:29:32;98192.34;;;8.14;71.54
79481;BME280;68944;48.262;14.208;2023-04-20T06:31:57;98190.34;;;8.16;71.20
79481;BME280;68944;48.262;14.208;2023-04-20T06:34:23;98199.66;;;8.25;71.74
79481;BME280;68944;48.262;14.208;2023-04-20T06:36:48;98182.19;;;8.24;71.60
79481;BME280;68944;48.262;14.208;2023-04-20T06:39:15;98197.94;;;8.45;71.23
79481;BME280;68944;48.262;14.208;2023-04-20T06:41:41;98180.94;;;8.34;70.82
79481;BME280;68944;48.262;14.208;2023-04-20T06:44:08;98183.75;;;8.46;70.54
79481;BME280;68944;48.262;14.208;2023-04-20T06:46:33;98175.84;;;8.39;70.69
79481;BME280;68944;48.262;14.208;2023-04-20T06:48:59;98193.47;;;8.45;71.19
79481;BME280;68944;48.262;14.208;2023-04-20T06:51:25;98204.41;;;8.56;70.78
79481;BME280;68944;48.262;14.208;2023-04-20T06:53:51;98182.47;;;8.55;70.48
79481;BME280;68944;48.262;14.208;2023-04-20T06:56:17;98188.56;;;8.69;71.19
79481;BME280;68944;48.262;14.208;2023-04-20T06:58:43;98189.31;;;8.76;70.52
79481;BME280;68944;48.262;14.208;2023-04-20T07:01:08;98197.00;;;8.85;70.71
79481;BME280;68944;48.262;14.208;2023-04-20T07:03:34;98188.44;;;8.90;70.82
79481;BME280;68944;48.262;14.208;2023-04-20T07:05:59;98186.19;;;8.93;70.69
79481;BME280;68944;48.262;14.208;2023-04-20T07:08:25;98179.88;;;8.94;70.06
79481;BME280;68944;48.262;14.208;2023-04-20T07:10:50;98181.06;;;8.98;70.20
79481;BME280;68944;48.262;14.208;2023-04-20T07:13:16;98176.13;;;9.09;69.55
79481;BME280;68944;48.262;14.208;2023-04-20T07:15:41;98185.09;;;9.08;69.27
79481;BME280;68944;48.262;14.208;2023-04-20T07:18:09;98178.53;;;9.17;69.34
79481;BME280;68944;48.262;14.208;2023-04-20T07:20:35;98176.78;;;9.30;69.68
79481;BME280;68944;48.262;14.208;2023-04-20T07:23:00;98186.00;;;9.27;69.18
79481;BME280;68944;48.262;14.208;2023-04-20T07:25:26;98165.44;;;9.29;69.27
79481;BME280;68944;48.262;14.208;2023-04-20T07:27:51;98172.22;;;9.44;69.16
79481;BME280;68944;48.262;14.208;2023-04-20T07:30:17;98159.22;;;9.42;68.78
79481;BME280;68944;48.262;14.208;2023-04-20T07:32:42;98171.84;;;9.66;68.96
79481;BME280;68944;48.262;14.208;2023-04-20T07:35:08;98166.34;;;9.67;67.88
79481;BME280;68944;48.262;14.208;2023-04-20T07:37:34;98157.06;;;9.58;68.31
79481;BME280;68944;48.262;14.208;2023-04-20T07:39:59;98152.50;;;9.65;68.01
79481;BME280;68944;48.262;14.208;2023-04-20T07:42:25;98163.25;;;9.71;68.65
79481;BME280;68944;48.262;14.208;2023-04-20T07:44:50;98170.16;;;9.72;68.05
79481;BME280;68944;48.262;14.208;2023-04-20T07:47:16;98162.09;;;9.85;68.28
79481;BME280;68944;48.262;14.208;2023-04-20T07:49:42;98163.22;;;9.96;68.14
79481;BME280;68944;48.262;14.208;2023-04-20T07:52:08;98172.56;;;9.99;67.23
79481;BME280;68944;48.262;14.208;2023-04-20T07:54:33;98164.75;;;10.04;67.86
79481;BME280;68944;48.262;14.208;2023-04-20T07:57:00;98164.25;;;10.14;68.21
79481;BME280;68944;48.262;14.208;2023-04-20T07:59:26;98166.25;;;10.19;68.17
79481;BME280;68944;48.262;14.208;2023-04-20T08:01:51;98166.31;;;10.50;67.45
79481;BME280;68944;48.262;14.208;2023-04-20T08:04:17;98155.38;;;10.77;67.13
79481;BME280;68944;48.262;14.208;2023-04-20T08:06:42;98163.88;;;10.98;67.09
79481;BME280;68944;48.262;14.208;2023-04-20T08:09:08;98152.72;;;11.08;66.06
79481;BME280;68944;48.262;14.208;2023-04-20T08:11:34;98142.13;;;11.08;65.96
79481;BME280;68944;48.262;14.208;2023-04-20T08:13:59;98140.34;;;11.01;65.03
79481;BME280;68944;48.262;14.208;2023-04-20T08:16:26;98133.47;;;11.12;65.25
79481;BME280;68944;48.262;14.208;2023-04-20T08:18:51;98139.16;;;11.40;66.11
79481;BME280;68944;48.262;14.208;2023-04-20T08:21:17;98132.38;;;11.68;65.34
79481;BME280;68944;48.262;14.208;2023-04-20T08:23:42;98122.22;;;11.65;65.23
79481;BME280;68944;48.262;14.208;2023-04-20T08:26:08;98127.03;;;11.92;65.36
79481;BME280;68944;48.262;14.208;2023-04-20T08:28:33;98126.47;;;11.90;64.29
79481;BME280;68944;48.262;14.208;2023-04-20T08:30:59;98116.22;;;11.82;63.21
79481;BME280;68944;48.262;14.208;2023-04-20T08:33:24;98122.88;;;11.97;63.91
79481;BME280;68944;48.262;14.208;2023-04-20T08:35:50;98128.53;;;11.88;63.23
79481;BME280;68944;48.262;14.208;2023-04-20T08:38:18;98124.50;;;11.98;63.34
79481;BME280;68944;48.262;14.208;2023-04-20T08:40:45;98112.03;;;11.98;63.52
79481;BME280;68944;48.262;14.208;2023-04-20T08:43:11;98119.88;;;12.05;62.87
79481;BME280;68944;48.262;14.208;2023-04-20T08:45:36;98122.06;;;11.96;63.14
79481;BME280;68944;48.262;14.208;2023-04-20T08:48:05;98099.78;;;11.85;63.31
79481;BME280;68944;48.262;14.208;2023-04-20T08:50:32;98099.91;;;11.90;63.93
79481;BME280;68944;48.262;14.208;2023-04-20T08:52:58;98112.16;;;11.91;63.82
79481;BME280;68944;48.262;14.208;2023-04-20T08:55:24;98110.41;;;11.97;63.83
79481;BME280;68944;48.262;14.208;2023-04-20T08:57:49;98106.50;;;11.88;64.21
79481;BME280;68944;48.262;14.208;2023-04-20T09:00:15;98099.94;;;11.66;63.92
79481;BME280;68944;48.262;14.208;2023-04-20T09:02:49;98104.00;;;11.57;64.73
79481;BME280;68944;48.262;14.208;2023-04-20T09:05:23;98103.63;;;11.53;64.60
79481;BME280;68944;48.262;14.208;2023-04-20T09:07:51;98096.72;;;11.64;64.48
79481;BME280;68944;48.262;14.208;2023-04-20T09:10:21;98102.25;;;11.87;64.75
79481;BME280;68944;48.262;14.208;2023-04-20T09:12:48;98093.78;;;12.02;64.00
79481;BME280;68944;48.262;14.208;2023-04-20T09:15:30;98090.41;;;12.19;63.56
79481;BME280;68944;48.262;14.208;2023-04-20T09:17:56;98096.84;;;12.52;64.22
79481;BME280;68944;48.262;14.208;2023-04-20T09:20:32;98099.81;;;12.85;63.48
79481;BME280;68944;48.262;14.208;2023-04-20T09:23:10;98087.66;;;12.89;62.27
79481;BME280;68944;48.262;14.208;2023-04-20T09:25:36;98093.56;;;12.91;61.97
79481;BME280;68944;48.262;14.208;2023-04-20T09:28:01;98089.13;;;12.97;61.30
79481;BME280;68944;48.262;14.208;2023-04-20T09:30:46;98077.53;;;13.03;61.19
79481;BME280;68944;48.262;14.208;2023-04-20T09:33:13;98080.00;;;13.10;61.38
79481;BME280;68944;48.262;14.208;2023-04-20T09:35:40;98065.50;;;13.18;61.00
79481;BME280;68944;48.262;14.208;2023-04-20T09:38:10;98078.16;;;13.28;60.82
79481;BME280;68944;48.262;14.208;2023-04-20T09:40:36;98076.97;;;13.18;61.02
79481;BME280;68944;48.262;14.208;2023-04-20T09:43:08;98074.13;;;13.25;60.68
79481;BME280;68944;48.262;14.208;2023-04-20T09:45:36;98076.81;;;13.25;60.67
79481;BME280;68944;48.262;14.208;2023-04-20T09:48:06;98069.28;;;13.22;60.61
79481;BME280;68944;48.262;14.208;2023-04-20T09:50:35;98072.28;;;13.26;60.20
79481;BME280;68944;48.262;14.208;2023-04-20T09:53:01;98068.72;;;13.20;60.61
79481;BME280;68944;48.262;14.208;2023-04-20T09:55:29;98062.22;;;13.28;60.74
79481;BME280;68944;48.262;14.208;2023-04-20T09:57:55;98056.44;;;13.53;60.76
79481;BME280;68944;48.262;14.208;2023-04-20T10:00:21;98061.25;;;13.74;60.14
79481;BME280;68944;48.262;14.208;2023-04-20T10:02:47;98054.72;;;13.82;59.40
79481;BME280;68944;48.262;14.208;2023-04-20T10:05:13;98063.31;;;14.12;59.48
79481;BME280;68944;48.262;14.208;2023-04-20T10:07:40;98059.09;;;14.43;60.05
79481;BME280;68944;48.262;14.208;2023-04-20T10:12:33;98058.69;;;14.29;57.17
79481;BME280;68944;48.262;14.208;2023-04-20T10:15:10;98062.63;;;13.99;58.54
79481;BME280;68944;48.262;14.208;2023-04-20T10:17:36;98069.25;;;13.96;59.12
79481;BME280;68944;48.262;14.208;2023-04-20T10:20:01;98061.31;;;14.02;59.22
79481;BME280;68944;48.262;14.208;2023-04-20T10:22:31;98060.88;;;14.10;59.02
79481;BME280;68944;48.262;14.208;2023-04-20T10:25:00;98059.50;;;14.30;58.82
79481;BME280;68944;48.262;14.208;2023-04-20T10:27:26;98050.09;;;14.50;58.55
79481;BME280;68944;48.262;14.208;2023-04-20T10:29:52;98026.97;;;14.55;57.91
79481;BME280;68944;48.262;14.208;2023-04-20T10:32:23;98030.78;;;14.70;57.59
79481;BME280;68944;48.262;14.208;2023-04-20T10:35:09;98024.25;;;14.83;56.82
79481;BME280;68944;48.262;14.208;2023-04-20T10:37:37;98030.72;;;14.87;56.17
79481;BME280;68944;48.262;14.208;2023-04-20T10:40:11;98014.75;;;14.93;56.12
79481;BME280;68944;48.262;14.208;2023-04-20T10:42:43;98012.09;;;14.98;55.71
79481;BME280;68944;48.262;14.208;2023-04-20T10:45:09;98004.13;;;15.03;54.95
79481;BME280;68944;48.262;14.208;2023-04-20T10:47:35;98014.88;;;15.13;56.13
79481;BME280;68944;48.262;14.208;2023-04-20T10:50:15;98006.16;;;15.29;55.82
79481;BME280;68944;48.262;14.208;2023-04-20T10:52:43;98013.56;;;15.65;56.36
79481;BME280;68944;48.262;14.208;2023-04-20T10:55:23;98015.22;;;15.76;55.00
79481;BME280;68944;48.262;14.208;2023-04-20T10:57:50;98011.78;;;15.91;54.23
79481;BME280;68944;48.262;14.208;2023-04-20T11:00:28;98005.91;;;15.95;55.08
79481;BME280;68944;48.262;14.208;2023-04-20T11:02:55;97991.28;;;16.13;53.95
79481;BME280;68944;48.262;14.208;2023-04-20T11:05:24;97987.31;;;16.57;53.74
79481;BME280;68944;48.262;14.208;2023-04-20T11:07:58;97980.34;;;16.88;53.59
79481;BME280;68944;48.262;14.208;2023-04-20T11:10:41;97977.59;;;17.35;53.32
79481;BME280;68944;48.262;14.208;2023-04-20T11:13:18;97974.31;;;17.48;52.39
79481;BME280;68944;48.262;14.208;2023-04-20T11:15:44;97979.44;;;17.45;52.21
79481;BME280;68944;48.262;14.208;2023-04-20T11:18:10;97974.63;;;17.42;51.14
79481;BME280;68944;48.262;14.208;2023-04-20T11:20:37;97974.66;;;17.31;51.26
79481;BME280;68944;48.262;14.208;2023-04-20T11:23:02;97978.94;;;17.11;51.48
79481;BME280;68944;48.262;14.208;2023-04-20T11:25:30;97972.53;;;17.07;52.06
79481;BME280;68944;48.262;14.208;2023-04-20T11:28:08;97977.88;;;17.33;51.82
79481;BME280;68944;48.262;14.208;2023-04-20T11:30:40;97974.50;;;17.73;51.58
79481;BME280;68944;48.262;14.208;2023-04-20T11:33:06;97964.31;;;17.75;50.79
79481;BME280;68944;48.262;14.208;2023-04-20T11:35:39;97960.22;;;17.83;50.90
79481;BME280;68944;48.262;14.208;2023-04-20T11:38:05;97967.91;;;18.00;50.39
79481;BME280;68944;48.262;14.208;2023-04-20T11:40:31;97963.69;;;17.94;50.32
79481;BME280;68944;48.262;14.208;2023-04-20T11:42:57;97967.81;;;18.21;50.51
79481;BME280;68944;48.262;14.208;2023-04-20T11:45:24;97977.72;;;18.61;50.38
79481;BME280;68944;48.262;14.208;2023-04-20T11:47:50;97962.97;;;18.88;50.27
79481;BME280;68944;48.262;14.208;2023-04-20T11:50:17;97966.41;;;18.94;49.37
79481;BME280;68944;48.262;14.208;2023-04-20T11:52:43;97958.59;;;18.97;49.01
79481;BME280;68944;48.262;14.208;2023-04-20T11:55:08;97956.22;;;18.66;48.97
79481;BME280;68944;48.262;14.208;2023-04-20T11:57:35;97957.84;;;18.62;49.61
79481;BME280;68944;48.262;14.208;2023-04-20T12:00:00;97951.53;;;18.77;49.03
79481;BME280;68944;48.262;14.208;2023-04-20T12:02:26;97957.44;;;18.79;49.51
79481;BME280;68944;48.262;14.208;2023-04-20T12:04:51;97966.22;;;19.15;48.67
79481;BME280;68944;48.262;14.208;2023-04-20T12:07:17;97966.28;;;19.34;48.48
79481;BME280;68944;48.262;14.208;2023-04-20T12:09:42;97958.81;;;19.31;47.64
79481;BME280;68944;48.262;14.208;2023-04-20T12:12:08;97951.13;;;19.43;48.23
79481;BME280;68944;48.262;14.208;2023-04-20T12:14:34;97946.41;;;19.54;47.92
79481;BME280;68944;48.262;14.208;2023-04-20T12:17:00;97944.72;;;19.39;47.53
79481;BME280;68944;48.262;14.208;2023-04-20T12:19:26;97940.06;;;19.70;47.37
79481;BME280;68944;48.262;14.208;2023-04-20T12:21:52;97903.06;;;19.81;47.32
79481;BME280;68944;48.262;14.208;2023-04-20T12:24:17;97933.50;;;20.34;47.24
79481;BME280;68944;48.262;14.208;2023-04-20T12:26:43;97942.72;;;20.47;47.63
79481;BME280;68944;48.262;14.208;2023-04-20T12:29:08;97941.19;;;20.74;46.71
79481;BME280;68944;48.262;14.208;2023-04-20T12:31:34;97939.81;;;21.19;46.59
79481;BME280;68944;48.262;14.208;2023-04-20T12:34:00;97941.31;;;21.54;46.12
79481;BME280;68944;48.262;14.208;2023-04-20T12:36:26;97930.72;;;21.43;45.90
79481;BME280;68944;48.262;14.208;2023-04-20T12:38:52;97926.34;;;21.47;45.46
79481;BME280;68944;48.262;14.208;2023-04-20T12:41:20;97932.59;;;21.71;45.77
79481;BME280;68944;48.262;14.208;2023-04-20T12:43:50;97932.50;;;21.62;44.45
79481;BME280;68944;48.262;14.208;2023-04-20T12:46:16;97940.34;;;21.73;44.49
79481;BME280;68944;48.262;14.208;2023-04-20T12:48:42;97930.72;;;21.57;44.57
79481;BME280;68944;48.262;14.208;2023-04-20T12:51:09;97919.09;;;21.71;44.54
79481;BME280;68944;48.262;14.208;2023-04-20T12:53:34;97932.22;;;22.01;43.95
79481;BME280;68944;48.262;14.208;2023-04-20T12:56:00;97936.75;;;22.60;44.79
79481;BME280;68944;48.262;14.208;2023-04-20T12:58:25;97923.28;;;24.22;42.58